createdAt,value
2019-02-25T04:42:02.720Z,29.00
2019-02-25T04:45:44.469Z,28.90
2019-02-25T04:52:56.206Z,29.00
2019-02-25T05:09:35.331Z,28.90
2019-02-25T05:12:46.635Z,29.00
2019-02-25T05:15:39.999Z,28.80
2019-02-25T05:18:39.852Z,28.70
2019-02-25T05:21:34.875Z,28.70
2019-02-25T05:24:37.859Z,28.70
2019-02-25T05:27:27.365Z,28.70
2019-02-25T05:30:25.604Z,28.50
2019-02-25T05:33:42.996Z,28.80
2019-02-25T05:37:06.149Z,28.70
2019-02-25T05:40:06.651Z,28.70
2019-02-25T05:43:09.639Z,28.80
2019-02-25T05:49:48.440Z,28.70
2019-02-25T06:48:18.478Z,29.00
2019-02-25T06:51:36.298Z,28.90
2019-02-25T06:54:34.479Z,29.00
2019-02-25T06:57:31.813Z,29.00
2019-02-25T07:00:24.398Z,29.00
2019-02-25T07:03:17.807Z,29.00
2019-02-25T07:06:21.278Z,29.00
2019-02-25T07:25:21.809Z,28.90
2019-02-25T07:28:33.576Z,28.90
2019-02-25T07:31:53.281Z,28.90
2019-02-25T07:35:07.150Z,28.90
2019-02-25T07:38:14.055Z,28.90
2019-02-25T07:41:31.027Z,28.90
2019-02-25T07:44:50.751Z,28.90
2019-02-25T07:48:33.234Z,28.90
2019-02-25T07:56:21.448Z,28.90
2019-02-25T08:03:24.792Z,29.00
2019-02-25T08:06:33.747Z,28.90
2019-02-25T08:09:41.021Z,28.90
2019-02-25T08:13:12.430Z,29.00
2019-02-25T08:16:33.353Z,28.90
2019-02-25T08:19:46.837Z,28.90
2019-02-25T08:22:58.696Z,28.90
2019-02-25T08:26:26.725Z,28.90
2019-02-25T08:30:48.785Z,28.90
2019-02-25T08:33:11.159Z,28.90
2019-02-25T08:36:34.084Z,28.90
2019-02-25T08:39:53.080Z,28.90
2019-02-25T08:43:18.062Z,29.00
2019-02-25T08:46:30.575Z,28.90
2019-02-25T08:49:45.184Z,28.90
2019-02-25T09:00:34.154Z,29.00
2019-02-25T09:03:29.862Z,28.90
2019-02-25T09:06:26.497Z,29.00
2019-02-25T09:09:23.559Z,28.90
2019-02-25T09:12:29.399Z,28.90
2019-02-25T09:15:22.279Z,28.90
2019-02-25T09:18:16.668Z,28.90
2019-02-25T09:25:45.518Z,29.00
2019-02-25T09:32:13.039Z,29.00
2019-02-25T09:35:06.734Z,28.90
2019-02-25T09:38:20.394Z,28.90
2019-02-25T09:49:52.840Z,29.00
2019-02-25T09:52:06.875Z,29.00
2019-02-25T09:59:21.038Z,29.10
2019-02-25T10:10:36.899Z,29.10
2019-02-25T10:17:41.936Z,29.00
2019-02-25T10:20:35.148Z,29.00
2019-02-25T10:23:56.619Z,29.00
2019-02-25T10:26:51.530Z,29.00
2019-02-25T10:43:11.484Z,29.10
2019-02-25T10:43:31.814Z,29.10
2019-02-25T10:46:25.252Z,29.10
2019-02-25T10:49:17.951Z,29.00
2019-02-25T10:52:12.783Z,29.10
2019-02-25T10:55:07.383Z,29.00
2019-02-25T10:58:02.032Z,29.00
2019-02-25T11:00:54.023Z,29.10
2019-02-25T11:03:47.934Z,29.00
2019-02-25T11:06:41.215Z,29.00
2019-02-25T11:09:46.116Z,29.00
2019-02-25T11:12:40.533Z,29.00
2019-02-25T11:15:37.565Z,29.10
2019-02-25T11:18:41.121Z,29.00
2019-02-25T11:21:37.615Z,29.00
2019-02-25T11:24:35.292Z,29.00
2019-02-25T11:27:31.318Z,29.10
2019-02-25T11:30:24.001Z,29.10
2019-02-25T11:33:24.791Z,29.10
2019-02-25T11:36:14.885Z,29.30
2019-02-25T11:39:15.630Z,29.20
2019-02-25T11:42:12.827Z,29.40
2019-02-25T11:45:05.512Z,29.60
2019-02-25T11:48:06.124Z,29.60
2019-02-25T11:50:59.927Z,29.70
2019-02-25T11:54:04.059Z,29.60
2019-02-25T11:57:06.049Z,29.60
2019-02-25T11:59:58.788Z,29.60
2019-02-25T12:19:17.768Z,29.70
2019-02-25T12:22:18.749Z,29.70
2019-02-25T12:28:41.259Z,29.70
2019-02-25T12:32:00.817Z,29.70
2019-02-25T12:35:18.149Z,29.70
2019-02-25T12:38:48.755Z,29.70
2019-02-25T12:41:54.918Z,29.70
2019-02-25T12:44:57.058Z,29.80
2019-02-25T12:48:10.703Z,29.70
2019-02-25T12:51:18.974Z,29.60
2019-02-25T12:54:22.027Z,29.70
2019-02-25T12:57:28.830Z,29.80
2019-02-25T13:00:27.757Z,29.80
2019-02-25T13:03:32.315Z,29.70
2019-02-25T13:06:59.045Z,29.70
2019-02-25T13:10:06.932Z,29.70
2019-02-25T13:13:14.360Z,29.80
2019-02-25T13:16:14.212Z,29.80
2019-02-25T13:19:18.278Z,29.80
2019-02-25T13:22:24.474Z,29.90
2019-02-25T13:25:24.280Z,29.80
2019-02-25T13:28:25.992Z,29.70
2019-02-25T13:31:28.007Z,29.70
2019-02-25T13:34:35.963Z,29.80
2019-02-25T13:37:39.899Z,29.80
2019-02-25T13:40:39.072Z,29.70
2019-02-25T13:43:41.148Z,29.80
2019-02-25T13:46:55.252Z,29.70
2019-02-25T13:50:02.082Z,29.70
2019-02-25T13:57:21.443Z,29.70
2019-02-25T14:01:10.691Z,29.70
2019-02-25T14:08:21.881Z,29.70
2019-02-25T14:12:07.178Z,29.70
2019-02-25T14:16:04.502Z,29.60
2019-02-25T14:19:51.891Z,29.60
2019-02-25T14:35:05.125Z,29.50
2019-02-25T14:38:32.161Z,29.50
2019-02-25T15:00:45.941Z,29.40
2019-02-25T15:03:31.650Z,29.40
2019-02-25T15:06:25.945Z,29.40
2019-02-25T15:17:08.318Z,29.40
2019-02-25T15:20:41.774Z,29.40
2019-02-25T15:27:15.336Z,29.40
2019-02-25T15:30:32.255Z,29.40
2019-02-25T15:33:45.222Z,29.40
2019-02-25T15:36:38.397Z,29.40
2019-02-25T15:39:42.583Z,29.40
2019-02-25T15:42:50.729Z,29.40
2019-02-25T15:46:03.105Z,29.40
2019-02-25T15:50:05.908Z,29.30
2019-02-25T15:57:53.380Z,29.30
2019-02-25T16:01:44.358Z,29.40
2019-02-25T16:16:20.002Z,29.40
2019-02-25T16:19:39.338Z,29.30
2019-02-25T16:22:40.792Z,29.40
